Nestor — V2FB3 — position and weather

sailwx.info

Track history (hours):
 
Tides and Currents Weather Stations Pressure Air Temp Water Temp Dewpoint Dewpoint Depression Visibility Wind Speed Wind Dir Waves Ship Positions

Nestor

Last reported at 2016-May-26 06:32 UTC. Time now 2016-May-31 00:14 UTC.
Position N 51°21' W 003°33'.

Length 88 m; draft 3.7 m.

Type: Cargo ship. MMSI: 305620000.

Date/timePositionNaut miles runAvg speedWind from/ knotsBaromVisibWave heightAir tempDewpointWater temp
2016-May-26 06:32N 51°21' W 003°33'2710.9
2016-May-26 04:04N 51°26' W 004°15'5 9.8
2016-May-26 03:32N 51°27' W 004°24'24 8.1
2016-May-26 00:33N 51°29' W 005°02'155 8.1
2016-May-25 05:17N 54°04' W 005°17'9 8.4
2016-May-25 04:15N 54°13' W 005°15'6 8.3
2016-May-25 03:33N 54°19' W 005°15'7 7.6
2016-May-25 02:33N 54°26' W 005°17'8 7.6
2016-May-25 01:34N 54°34' W 005°20'8 8.3
2016-May-25 00:33N 54°41' W 005°26'10 9.6
2016-May-24 23:33N 54°50' W 005°32'1210.8
2016-May-24 22:29N 55°01' W 005°40'1110.9
2016-May-24 21:29N 55°09' W 005°52'1111.6
2016-May-24 20:33N 55°18' W 006°03'9 9.3
2016-May-24 19:34N 55°21' W 006°18'9 9.0
2016-May-24 18:33N 55°18' W 006°33'8 7.8
2016-May-24 17:30N 55°16' W 006°47'10 0.2
2016-May-22 14:27N 55°11' W 007°02'8 8.7
2016-May-22 13:33N 55°15' W 006°50'10 9.6
2016-May-22 12:33N 55°20' W 006°35'9 8.9
2016-May-22 11:33N 55°24' W 006°21'8 8.1
2016-May-22 10:33N 55°25' W 006°07'7 6.8
2016-May-22 09:33N 55°20' W 005°58'6 5.5
2016-May-22 08:33N 55°16' W 005°52'24 8.1
2016-May-22 05:33N 54°54' W 005°34'9 9.2
2016-May-22 04:33N 54°45' W 005°28'1010.0
2016-May-22 03:34N 54°36' W 005°22'10 9.9
2016-May-22 02:34N 54°27' W 005°15'10 9.5
2016-May-22 01:34N 54°17' W 005°15'  
2016-May-19 09:03N 51°28' W 003°09'0 0.0
2016-May-19 07:30N 51°28' W 003°09'0 0.0
2016-May-19 06:34N 51°28' W 003°09'  
2016-May-17 02:25N 51°34' W 002°58'0 0.0
2016-May-16 22:18N 51°34' W 002°58'0 0.0
2016-May-16 20:18N 51°34' W 002°58'  
Track history (hours):
 
Tides and Currents Weather Stations Pressure Air Temp Water Temp Dewpoint Dewpoint Depression Visibility Wind Speed Wind Dir Waves Ship Positions

Nestor

Last reported at 2016-May-26 06:32 UTC. Time now 2016-May-31 00:14 UTC.
Position N 51°21' W 003°33'.

Length 88 m; draft 3.7 m.

Type: Cargo ship. MMSI: 305620000.

Date/timePositionNaut miles runAvg speedWind from/ knotsBaromVisibWave heightAir tempDewpointWater temp
2016-May-26 06:32N 51°21' W 003°33'2710.9
2016-May-26 04:04N 51°26' W 004°15'5 9.8
2016-May-26 03:32N 51°27' W 004°24'24 8.1
2016-May-26 00:33N 51°29' W 005°02'155 8.1
2016-May-25 05:17N 54°04' W 005°17'9 8.4
2016-May-25 04:15N 54°13' W 005°15'6 8.3
2016-May-25 03:33N 54°19' W 005°15'7 7.6
2016-May-25 02:33N 54°26' W 005°17'8 7.6
2016-May-25 01:34N 54°34' W 005°20'8 8.3
2016-May-25 00:33N 54°41' W 005°26'10 9.6
2016-May-24 23:33N 54°50' W 005°32'1210.8
2016-May-24 22:29N 55°01' W 005°40'1110.9
2016-May-24 21:29N 55°09' W 005°52'1111.6
2016-May-24 20:33N 55°18' W 006°03'9 9.3
2016-May-24 19:34N 55°21' W 006°18'9 9.0
2016-May-24 18:33N 55°18' W 006°33'8 7.8
2016-May-24 17:30N 55°16' W 006°47'10 0.2
2016-May-22 14:27N 55°11' W 007°02'8 8.7
2016-May-22 13:33N 55°15' W 006°50'10 9.6
2016-May-22 12:33N 55°20' W 006°35'9 8.9
2016-May-22 11:33N 55°24' W 006°21'8 8.1
2016-May-22 10:33N 55°25' W 006°07'7 6.8
2016-May-22 09:33N 55°20' W 005°58'6 5.5
2016-May-22 08:33N 55°16' W 005°52'24 8.1
2016-May-22 05:33N 54°54' W 005°34'9 9.2
2016-May-22 04:33N 54°45' W 005°28'1010.0
2016-May-22 03:34N 54°36' W 005°22'10 9.9
2016-May-22 02:34N 54°27' W 005°15'10 9.5
2016-May-22 01:34N 54°17' W 005°15'  
2016-May-19 09:03N 51°28' W 003°09'0 0.0
2016-May-19 07:30N 51°28' W 003°09'0 0.0
2016-May-19 06:34N 51°28' W 003°09'  
2016-May-17 02:25N 51°34' W 002°58'0 0.0
2016-May-16 22:18N 51°34' W 002°58'0 0.0
2016-May-16 20:18N 51°34' W 002°58'  

Dump ship's entire track history